createdAt,value
2023-02-09T00:00:26.267Z,21.33
2023-02-09T00:02:54.084Z,19.53
2023-02-09T00:05:21.822Z,20.30
2023-02-09T00:07:49.583Z,19.73
2023-02-09T00:10:17.730Z,19.10
2023-02-09T00:13:04.388Z,20.43
2023-02-09T00:15:32.114Z,19.00
2023-02-09T00:17:59.954Z,17.73
2023-02-09T00:20:27.650Z,18.00
2023-02-09T00:22:55.393Z,19.70
2023-02-09T00:25:23.106Z,17.43
2023-02-09T00:27:52.590Z,18.30
2023-02-09T00:30:20.701Z,18.37
2023-02-09T00:32:48.489Z,17.97
2023-02-09T00:35:17.196Z,18.63
2023-02-09T00:37:44.960Z,16.93
2023-02-09T00:40:13.266Z,19.10
2023-02-09T00:42:40.999Z,18.40
2023-02-09T00:45:10.919Z,18.87
2023-02-09T00:47:39.062Z,19.40
2023-02-09T00:50:08.488Z,18.83
2023-02-09T00:52:36.792Z,17.17
2023-02-09T00:55:05.086Z,20.13
2023-02-09T00:57:33.425Z,19.17
2023-02-09T01:00:01.202Z,17.47
2023-02-09T01:02:30.437Z,17.70
2023-02-09T01:04:58.254Z,18.13
2023-02-09T01:07:26.211Z,17.93
2023-02-09T01:09:54.062Z,18.73
2023-02-09T01:12:21.827Z,18.70
2023-02-09T01:14:49.614Z,18.77
2023-02-09T01:17:17.370Z,18.53
2023-02-09T01:19:46.711Z,17.93
2023-02-09T01:22:16.380Z,20.07
2023-02-09T01:24:44.157Z,19.23
2023-02-09T01:27:11.930Z,19.30
2023-02-09T01:29:39.900Z,15.83
2023-02-09T01:32:07.845Z,18.37
2023-02-09T01:34:35.909Z,20.13
2023-02-09T01:37:05.375Z,19.87
2023-02-09T01:39:33.307Z,18.83
2023-02-09T01:42:01.063Z,19.63
2023-02-09T01:45:07.078Z,17.40
2023-02-09T01:47:40.086Z,16.63
2023-02-09T01:50:08.687Z,17.53
2023-02-09T01:52:37.835Z,16.83
2023-02-09T01:55:09.184Z,18.43
2023-02-09T01:57:40.437Z,18.00
2023-02-09T02:00:12.293Z,17.47
2023-02-09T02:02:40.844Z,17.77
2023-02-09T02:05:09.318Z,19.63
2023-02-09T02:07:42.181Z,18.60
2023-02-09T02:10:10.658Z,18.30
2023-02-09T02:12:39.664Z,16.80
2023-02-09T02:15:08.143Z,17.23
2023-02-09T02:17:52.425Z,16.30
2023-02-09T02:20:58.873Z,17.80
2023-02-09T02:23:36.871Z,16.13
2023-02-09T02:26:31.944Z,17.97
2023-02-09T02:29:22.002Z,15.10
2023-02-09T02:32:13.780Z,15.27
2023-02-09T02:34:46.479Z,17.07
2023-02-09T02:37:29.389Z,14.70
2023-02-09T02:40:04.841Z,15.20
2023-02-09T02:42:52.189Z,13.30
2023-02-09T02:45:30.091Z,14.67
2023-02-09T02:48:08.049Z,13.77
2023-02-09T02:50:40.585Z,15.00
2023-02-09T02:53:11.835Z,13.73
2023-02-09T02:55:40.533Z,14.47
2023-02-09T02:58:11.930Z,15.03
2023-02-09T03:00:44.285Z,14.80
2023-02-09T03:03:17.730Z,14.97
2023-02-09T03:05:46.273Z,14.20
2023-02-09T03:08:14.000Z,10.60
2023-02-09T03:10:43.427Z,13.40
2023-02-09T03:13:33.324Z,13.80
2023-02-09T03:16:13.688Z,14.97
2023-02-09T03:18:53.513Z,13.27
2023-02-09T03:21:31.082Z,12.97
2023-02-09T03:24:04.366Z,13.03
2023-02-09T03:26:41.099Z,13.50
2023-02-09T03:29:10.231Z,12.80
2023-02-09T03:31:39.522Z,13.50
2023-02-09T03:34:10.418Z,12.30
2023-02-09T03:36:40.254Z,13.33
2023-02-09T03:39:08.054Z,13.20
2023-02-09T03:41:35.819Z,13.67
2023-02-09T03:44:35.566Z,12.60
2023-02-09T03:47:05.711Z,11.30
2023-02-09T03:49:37.050Z,12.60
2023-02-09T03:52:05.011Z,12.60
2023-02-09T03:54:33.910Z,12.57
2023-02-09T03:57:02.396Z,12.03
2023-02-09T03:59:30.395Z,13.57
2023-02-09T04:01:59.578Z,12.80
2023-02-09T04:04:27.515Z,11.97
2023-02-09T04:06:57.123Z,12.10
2023-02-09T04:09:25.510Z,11.43
2023-02-09T04:11:53.754Z,12.50
2023-02-09T04:14:21.743Z,12.80
2023-02-09T04:16:49.573Z,11.83
2023-02-09T04:19:17.535Z,10.93
2023-02-09T04:21:45.389Z,11.53
2023-02-09T04:24:14.604Z,11.03
2023-02-09T04:26:42.477Z,11.63
2023-02-09T04:29:10.320Z,11.70
2023-02-09T04:31:38.164Z,11.00
2023-02-09T04:34:05.980Z,11.83
2023-02-09T04:36:33.792Z,11.33
2023-02-09T04:39:01.556Z,11.90
2023-02-09T04:41:30.717Z,11.93
2023-02-09T04:43:58.551Z,11.20
2023-02-09T04:46:26.543Z,12.07
2023-02-09T04:48:56.474Z,10.70
2023-02-09T04:51:24.295Z,10.67
2023-02-09T04:53:52.308Z,11.70
2023-02-09T04:56:20.148Z,11.13
2023-02-09T04:59:06.968Z,11.60
2023-02-09T05:01:34.883Z,10.90
2023-02-09T05:04:02.719Z,10.93
2023-02-09T05:06:30.440Z,12.20
2023-02-09T05:08:58.244Z,10.27
2023-02-09T05:11:26.085Z,10.37
2023-02-09T05:13:55.217Z,10.20
2023-02-09T05:16:23.172Z,12.00
2023-02-09T05:18:51.350Z,11.10
2023-02-09T05:21:19.615Z,11.67
2023-02-09T05:23:47.500Z,10.23
2023-02-09T05:26:15.248Z,9.77
2023-02-09T05:28:43.112Z,9.23
2023-02-09T05:31:12.287Z,10.83
2023-02-09T05:33:40.133Z,10.13
2023-02-09T05:36:09.766Z,10.47
2023-02-09T05:38:37.866Z,9.07
2023-02-09T05:41:06.859Z,10.33
2023-02-09T05:43:34.638Z,10.73
2023-02-09T05:46:02.398Z,10.60
2023-02-09T05:48:31.549Z,10.77
2023-02-09T05:50:59.296Z,10.33
2023-02-09T05:53:27.057Z,10.60
2023-02-09T05:55:54.801Z,10.33
2023-02-09T05:58:22.619Z,10.80
2023-02-09T06:00:50.323Z,11.00
2023-02-09T06:03:18.400Z,10.73
2023-02-09T06:05:47.701Z,9.97
2023-02-09T06:08:15.620Z,9.80
2023-02-09T06:10:43.546Z,10.73
2023-02-09T06:13:11.280Z,10.27
2023-02-09T06:15:39.056Z,9.37
2023-02-09T06:18:06.950Z,9.70
2023-02-09T06:20:34.819Z,9.97
2023-02-09T06:23:03.985Z,11.03
2023-02-09T06:25:31.791Z,9.73
2023-02-09T06:27:59.651Z,10.13
2023-02-09T06:30:27.464Z,9.80
2023-02-09T06:32:55.219Z,10.13
2023-02-09T06:35:22.997Z,10.70
2023-02-09T06:37:50.789Z,9.03
2023-02-09T06:40:20.773Z,10.27
2023-02-09T06:42:48.632Z,9.93
2023-02-09T06:45:18.430Z,9.03
2023-02-09T06:47:47.575Z,9.53
2023-02-09T06:50:16.981Z,9.07
2023-02-09T06:52:45.220Z,9.77
2023-02-09T06:55:13.205Z,10.80
2023-02-09T06:57:42.369Z,9.60
2023-02-09T07:00:12.382Z,10.30
2023-02-09T07:02:42.726Z,9.27
2023-02-09T07:05:10.767Z,8.90
2023-02-09T07:07:39.318Z,9.50
2023-02-09T07:10:08.573Z,6.50
2023-02-09T07:12:37.263Z,8.83
2023-02-09T07:15:07.836Z,9.43
2023-02-09T07:17:35.573Z,8.80
2023-02-09T07:20:03.725Z,8.60
2023-02-09T07:22:31.913Z,8.80
2023-02-09T07:25:00.000Z,9.33
2023-02-09T07:27:27.928Z,9.33
2023-02-09T07:29:55.692Z,9.00
2023-02-09T07:32:25.478Z,8.47
2023-02-09T07:34:53.415Z,9.13
2023-02-09T07:37:21.405Z,9.63
2023-02-09T07:39:49.621Z,10.07
2023-02-09T07:42:17.694Z,10.07
2023-02-09T07:44:45.538Z,8.87
2023-02-09T07:47:13.360Z,9.93
2023-02-09T07:49:42.736Z,10.27
2023-02-09T07:52:10.686Z,9.93
2023-02-09T07:54:38.461Z,10.37
2023-02-09T07:57:06.224Z,9.67
2023-02-09T07:59:34.002Z,8.93
2023-02-09T08:02:02.402Z,7.97
2023-02-09T08:04:30.823Z,9.80
2023-02-09T08:07:01.150Z,9.20
2023-02-09T08:09:29.393Z,9.27
2023-02-09T08:11:59.811Z,9.10
2023-02-09T08:14:30.651Z,9.27
2023-02-09T08:17:16.638Z,10.53
2023-02-09T08:19:45.077Z,9.80
2023-02-09T08:22:14.552Z,10.03
2023-02-09T08:24:42.405Z,9.57
2023-02-09T08:27:11.014Z,8.73
2023-02-09T08:29:38.920Z,9.93
2023-02-09T08:32:07.016Z,9.93
2023-02-09T08:34:34.916Z,9.77
2023-02-09T08:37:02.796Z,9.63
2023-02-09T08:39:32.247Z,10.47
2023-02-09T08:42:00.047Z,9.20
2023-02-09T08:44:28.332Z,10.20
2023-02-09T08:46:56.313Z,9.37
2023-02-09T08:49:24.137Z,8.90
2023-02-09T08:51:52.438Z,9.43
2023-02-09T08:54:20.355Z,9.13
2023-02-09T08:56:49.599Z,8.70
2023-02-09T08:59:19.979Z,8.87
2023-02-09T09:01:47.950Z,9.10
2023-02-09T09:04:15.805Z,9.20
2023-02-09T09:06:43.729Z,8.57
2023-02-09T09:09:11.593Z,8.90
2023-02-09T09:11:39.821Z,10.20
2023-02-09T09:14:09.026Z,10.20
2023-02-09T09:16:37.118Z,9.87
2023-02-09T09:19:05.727Z,9.20
2023-02-09T09:21:34.693Z,9.80
2023-02-09T09:24:02.743Z,9.90
2023-02-09T09:26:30.529Z,10.53
2023-02-09T09:28:58.408Z,8.20
2023-02-09T09:31:27.781Z,10.17
2023-02-09T09:33:56.358Z,9.00
2023-02-09T09:36:24.267Z,9.77
2023-02-09T09:38:52.425Z,9.20
2023-02-09T09:41:25.083Z,10.07
2023-02-09T09:43:55.225Z,10.20
2023-02-09T09:46:27.556Z,10.97
2023-02-09T09:48:58.324Z,9.33
2023-02-09T09:51:37.698Z,9.63
2023-02-09T09:54:09.192Z,9.20
2023-02-09T09:56:37.254Z,10.13
2023-02-09T09:59:05.150Z,9.13
2023-02-09T10:01:34.351Z,10.40
2023-02-09T10:04:12.936Z,8.77
2023-02-09T10:06:42.440Z,8.30
2023-02-09T10:09:22.495Z,10.47
2023-02-09T10:11:54.739Z,9.47
2023-02-09T10:14:23.752Z,8.70
2023-02-09T10:16:51.664Z,8.80
2023-02-09T10:19:23.123Z,9.20
2023-02-09T10:21:51.119Z,8.53
2023-02-09T10:24:24.085Z,9.97
2023-02-09T10:27:25.690Z,9.00
2023-02-09T10:29:53.826Z,9.17
2023-02-09T10:32:23.426Z,10.40
2023-02-09T10:34:54.714Z,10.33
2023-02-09T10:37:26.906Z,10.00
2023-02-09T10:40:13.875Z,10.27
2023-02-09T10:42:44.369Z,9.23
2023-02-09T10:45:19.294Z,9.00
2023-02-09T10:47:59.987Z,8.43
2023-02-09T10:50:30.394Z,8.77
2023-02-09T10:53:01.502Z,9.23
2023-02-09T10:55:35.942Z,8.63
2023-02-09T10:58:13.225Z,8.50
2023-02-09T11:00:51.142Z,8.73
2023-02-09T11:03:21.806Z,9.37
2023-02-09T11:05:59.708Z,9.63
2023-02-09T11:08:38.440Z,9.13
2023-02-09T11:11:10.318Z,9.07
2023-02-09T11:13:39.295Z,9.43
2023-02-09T11:16:30.757Z,9.30
2023-02-09T11:19:02.010Z,8.70
2023-02-09T11:21:46.578Z,7.33
2023-02-09T11:24:21.410Z,8.47
2023-02-09T11:26:52.475Z,8.83
2023-02-09T11:29:27.637Z,9.17
2023-02-09T11:32:12.141Z,8.70
2023-02-09T11:35:09.413Z,8.87
2023-02-09T11:37:47.023Z,9.43
2023-02-09T11:40:25.096Z,8.93
2023-02-09T11:43:00.466Z,8.47
2023-02-09T11:45:33.701Z,8.73
2023-02-09T11:48:06.938Z,9.27
2023-02-09T11:50:42.138Z,7.80
2023-02-09T11:53:21.321Z,8.67
2023-02-09T11:55:53.477Z,8.30
2023-02-09T11:58:41.702Z,8.10
2023-02-09T12:01:19.993Z,7.60
2023-02-09T12:03:57.958Z,8.33
2023-02-09T12:06:26.513Z,8.87
2023-02-09T12:09:04.435Z,9.13
2023-02-09T12:11:40.893Z,9.07
2023-02-09T12:14:22.163Z,8.83
2023-02-09T12:16:58.030Z,7.60
2023-02-09T12:19:35.993Z,9.10
2023-02-09T12:22:41.382Z,8.07
2023-02-09T12:25:25.428Z,8.87
2023-02-09T12:28:16.816Z,8.93
2023-02-09T12:31:31.689Z,8.50
2023-02-09T12:34:28.461Z,8.90
2023-02-09T12:37:10.259Z,9.03
2023-02-09T12:39:38.238Z,7.80
2023-02-09T12:42:29.099Z,9.43
2023-02-09T12:44:59.261Z,8.87
2023-02-09T12:47:48.319Z,8.73
2023-02-09T12:50:28.088Z,8.90
2023-02-09T12:53:46.479Z,9.03
2023-02-09T12:56:35.093Z,8.90
2023-02-09T12:59:22.310Z,9.60
2023-02-09T13:02:13.926Z,9.20
2023-02-09T13:04:50.978Z,8.63
2023-02-09T13:07:26.544Z,8.67
2023-02-09T13:09:56.691Z,9.00
2023-02-09T13:12:34.039Z,8.87
2023-02-09T13:15:07.732Z,8.27
2023-02-09T13:17:41.757Z,5.93
2023-02-09T13:20:37.851Z,9.57
2023-02-09T13:23:21.645Z,9.20
2023-02-09T13:25:49.513Z,8.80
2023-02-09T13:28:18.999Z,8.33
2023-02-09T13:30:48.600Z,9.13
2023-02-09T13:33:42.359Z,8.37
2023-02-09T13:36:25.250Z,8.63
2023-02-09T13:38:53.768Z,8.77
2023-02-09T13:41:27.266Z,9.30
2023-02-09T13:43:55.117Z,8.87
2023-02-09T13:46:27.145Z,8.63
2023-02-09T13:48:55.385Z,8.47
2023-02-09T13:51:24.693Z,9.80
2023-02-09T13:54:00.797Z,8.80
2023-02-09T13:56:29.833Z,9.00
2023-02-09T13:58:58.256Z,9.40
2023-02-09T14:01:31.018Z,8.83
2023-02-09T14:04:07.282Z,9.00
2023-02-09T14:06:39.244Z,8.33
2023-02-09T14:09:13.909Z,9.10
2023-02-09T14:11:45.294Z,8.57
2023-02-09T14:14:19.061Z,8.83
2023-02-09T14:16:53.724Z,9.70
2023-02-09T14:19:27.106Z,10.23
2023-02-09T14:21:55.182Z,9.00
2023-02-09T14:24:24.272Z,10.50
2023-02-09T14:26:59.359Z,8.90
2023-02-09T14:29:30.301Z,10.13
2023-02-09T14:32:01.149Z,10.57
2023-02-09T14:34:33.102Z,9.07
2023-02-09T14:37:02.964Z,8.70
2023-02-09T14:39:32.082Z,8.87
2023-02-09T14:42:03.474Z,10.50
2023-02-09T14:44:32.228Z,9.23
2023-02-09T14:47:02.409Z,8.90
2023-02-09T14:49:30.642Z,9.47
2023-02-09T14:52:04.114Z,9.27
2023-02-09T14:54:35.466Z,8.90
2023-02-09T14:57:03.786Z,9.73
2023-02-09T14:59:32.212Z,10.37
2023-02-09T15:02:01.600Z,8.70
2023-02-09T15:04:29.522Z,8.97
2023-02-09T15:07:02.803Z,10.20
2023-02-09T15:09:35.618Z,9.67
2023-02-09T15:12:07.240Z,9.03
2023-02-09T15:14:41.358Z,9.20
2023-02-09T15:17:17.303Z,9.53
2023-02-09T15:19:45.868Z,9.20
2023-02-09T15:22:16.611Z,8.43
2023-02-09T15:24:45.377Z,9.83
2023-02-09T15:27:18.749Z,10.20
2023-02-09T15:29:46.551Z,8.80
2023-02-09T15:32:18.069Z,9.13
2023-02-09T15:34:46.058Z,9.07
2023-02-09T15:37:23.397Z,9.67
2023-02-09T15:39:55.817Z,9.87
2023-02-09T15:42:41.027Z,10.27
2023-02-09T15:45:37.466Z,9.97
2023-02-09T15:48:07.398Z,9.93
2023-02-09T15:50:37.604Z,8.43
2023-02-09T15:53:07.753Z,9.10
2023-02-09T15:55:43.481Z,9.20
2023-02-09T15:58:17.555Z,8.87
2023-02-09T16:00:45.759Z,9.90
2023-02-09T16:03:16.892Z,10.03
2023-02-09T16:05:44.771Z,10.20
2023-02-09T16:08:18.875Z,9.63
2023-02-09T16:10:48.054Z,9.47
2023-02-09T16:13:17.321Z,10.27
2023-02-09T16:15:45.428Z,9.57
2023-02-09T16:18:13.395Z,10.10
2023-02-09T16:20:47.035Z,9.73
2023-02-09T16:23:21.027Z,10.30
2023-02-09T16:26:01.559Z,10.23
2023-02-09T16:28:29.747Z,11.53
2023-02-09T16:30:59.224Z,10.90
2023-02-09T16:33:27.310Z,10.27
2023-02-09T16:35:58.873Z,10.20
2023-02-09T16:38:27.776Z,10.73
2023-02-09T16:40:56.702Z,10.47
2023-02-09T16:43:24.887Z,9.70
2023-02-09T16:46:03.281Z,10.37
2023-02-09T16:48:34.511Z,10.53
2023-02-09T16:51:03.981Z,10.10
2023-02-09T16:53:36.237Z,9.50
2023-02-09T16:56:06.369Z,10.47
2023-02-09T16:58:34.212Z,11.60
2023-02-09T17:01:02.022Z,10.27
2023-02-09T17:03:34.442Z,10.23
2023-02-09T17:06:04.310Z,10.80
2023-02-09T17:08:34.586Z,10.47
2023-02-09T17:11:04.152Z,10.17
2023-02-09T17:13:32.396Z,10.93
2023-02-09T17:16:02.302Z,10.07
2023-02-09T17:18:33.286Z,10.30
2023-02-09T17:21:04.481Z,9.90
2023-02-09T17:23:32.230Z,10.30
2023-02-09T17:26:00.433Z,10.40
2023-02-09T17:28:29.130Z,10.60
2023-02-09T17:30:59.494Z,11.80
2023-02-09T17:33:29.838Z,13.13
2023-02-09T17:36:24.290Z,12.10
2023-02-09T17:38:48.358Z,9.97
2023-02-09T17:41:18.625Z,11.27
2023-02-09T17:43:50.582Z,10.57
2023-02-09T17:46:19.807Z,11.33
2023-02-09T17:48:48.176Z,10.73
2023-02-09T17:51:21.296Z,10.13
2023-02-09T17:53:50.680Z,10.37
2023-02-09T17:56:19.385Z,11.50
2023-02-09T17:58:48.126Z,10.17
2023-02-09T18:01:26.438Z,11.83
2023-02-09T18:03:55.457Z,10.63
2023-02-09T18:06:29.997Z,9.70
2023-02-09T18:08:59.338Z,11.00
2023-02-09T18:11:41.111Z,12.60
2023-02-09T18:14:11.913Z,11.50
2023-02-09T18:16:41.234Z,12.73
2023-02-09T18:19:09.328Z,12.70
2023-02-09T18:21:37.131Z,11.60
2023-02-09T18:24:07.659Z,11.30
2023-02-09T18:26:35.376Z,10.90
2023-02-09T18:29:03.116Z,10.50
2023-02-09T18:31:30.923Z,12.73
2023-02-09T18:33:59.205Z,12.00
2023-02-09T18:36:27.195Z,10.67
2023-02-09T18:38:55.792Z,11.63
2023-02-09T18:41:25.067Z,10.60
2023-02-09T18:43:54.427Z,9.87
2023-02-09T18:46:24.533Z,10.90
2023-02-09T18:48:52.549Z,9.57
2023-02-09T18:51:20.445Z,10.40
2023-02-09T18:53:48.730Z,10.13
2023-02-09T18:56:19.251Z,9.23
2023-02-09T18:58:48.717Z,9.80
2023-02-09T19:01:16.495Z,10.27
2023-02-09T19:03:44.258Z,10.00
2023-02-09T19:06:12.720Z,10.27
2023-02-09T19:08:41.171Z,11.33
2023-02-09T19:11:13.885Z,10.10
2023-02-09T19:13:41.898Z,9.60
2023-02-09T19:16:13.573Z,9.50
2023-02-09T19:18:41.355Z,9.63
2023-02-09T19:21:09.190Z,9.17
2023-02-09T19:23:36.958Z,9.77
2023-02-09T19:26:06.200Z,9.63
2023-02-09T19:28:35.111Z,10.20
2023-02-09T19:31:03.094Z,9.60
2023-02-09T19:33:32.263Z,9.83
2023-02-09T19:36:01.030Z,9.43
2023-02-09T19:38:28.848Z,9.87
2023-02-09T19:41:09.694Z,10.07
2023-02-09T19:43:38.440Z,10.00
2023-02-09T19:46:06.415Z,10.23
2023-02-09T19:48:35.622Z,10.27
2023-02-09T19:51:03.399Z,9.50
2023-02-09T19:53:31.609Z,9.10
2023-02-09T19:55:59.731Z,9.10
2023-02-09T19:58:27.432Z,8.93
2023-02-09T20:00:56.091Z,9.00
2023-02-09T20:03:24.860Z,8.70
2023-02-09T20:05:54.450Z,9.67
2023-02-09T20:08:22.289Z,9.80
2023-02-09T20:10:52.301Z,9.37
2023-02-09T20:13:20.139Z,9.23
2023-02-09T20:15:48.579Z,9.23
2023-02-09T20:18:17.748Z,9.70
2023-02-09T20:20:46.228Z,9.53
2023-02-09T20:23:15.649Z,9.63
2023-02-09T20:25:44.287Z,8.63
2023-02-09T20:28:13.449Z,9.63
2023-02-09T20:30:42.084Z,9.97
2023-02-09T20:33:10.187Z,9.47
2023-02-09T20:35:40.219Z,9.53
2023-02-09T20:38:08.563Z,9.90
2023-02-09T20:40:38.440Z,10.27
2023-02-09T20:43:29.177Z,10.90
2023-02-09T20:46:14.562Z,11.87
2023-02-09T20:48:42.360Z,11.73
2023-02-09T20:51:10.141Z,12.80
2023-02-09T20:53:37.948Z,12.97
2023-02-09T20:56:08.589Z,14.33
2023-02-09T20:58:37.731Z,14.43
2023-02-09T21:01:06.691Z,14.10
2023-02-09T21:03:34.509Z,13.43
2023-02-09T21:06:02.341Z,14.00
2023-02-09T21:08:30.107Z,14.10
2023-02-09T21:10:58.398Z,13.70
2023-02-09T21:13:27.646Z,13.87
2023-02-09T21:15:55.387Z,13.87
2023-02-09T21:18:24.976Z,12.83
2023-02-09T21:20:53.525Z,13.83
2023-02-09T21:23:21.610Z,13.83
2023-02-09T21:25:49.599Z,13.83
2023-02-09T21:28:17.367Z,13.67
2023-02-09T21:30:47.111Z,15.13
2023-02-09T21:33:15.022Z,15.43
2023-02-09T21:35:42.800Z,14.03
2023-02-09T21:38:10.661Z,13.30
2023-02-09T21:40:39.050Z,14.50
2023-02-09T21:43:07.007Z,16.13
2023-02-09T21:45:34.806Z,14.90
2023-02-09T21:48:04.063Z,15.47
2023-02-09T21:50:31.946Z,14.53
2023-02-09T21:53:01.912Z,15.80
2023-02-09T21:55:30.688Z,16.43
2023-02-09T21:57:58.502Z,14.57
2023-02-09T22:00:26.215Z,14.93
2023-02-09T22:02:54.372Z,14.73
2023-02-09T22:05:23.862Z,16.27
2023-02-09T22:07:53.136Z,14.73
2023-02-09T22:10:20.850Z,15.70
2023-02-09T22:12:49.730Z,15.20
2023-02-09T22:15:19.139Z,16.07
2023-02-09T22:17:48.368Z,14.73
2023-02-09T22:20:16.371Z,16.87
2023-02-09T22:22:46.092Z,15.87
2023-02-09T22:25:13.953Z,16.43
2023-02-09T22:27:41.774Z,17.90
2023-02-09T22:30:10.929Z,16.40
2023-02-09T22:32:38.725Z,15.63
2023-02-09T22:35:07.114Z,16.60
2023-02-09T22:37:34.971Z,16.40
2023-02-09T22:40:04.223Z,17.03
2023-02-09T22:42:31.988Z,16.93
2023-02-09T22:44:59.745Z,17.90
2023-02-09T22:47:27.523Z,16.83
2023-02-09T22:49:55.305Z,18.70
2023-02-09T22:52:23.156Z,17.77
2023-02-09T22:54:51.049Z,17.37
2023-02-09T22:57:20.152Z,17.60
2023-02-09T22:59:47.956Z,18.53
2023-02-09T23:02:15.672Z,17.27
2023-02-09T23:04:43.530Z,18.93
2023-02-09T23:07:11.247Z,19.30
2023-02-09T23:09:39.303Z,18.57
2023-02-09T23:12:07.278Z,18.50
2023-02-09T23:14:36.561Z,18.33
2023-02-09T23:17:04.475Z,20.77
2023-02-09T23:19:32.207Z,19.80
2023-02-09T23:22:00.000Z,20.93
2023-02-09T23:24:27.904Z,19.13
2023-02-09T23:26:56.188Z,20.63
2023-02-09T23:29:23.995Z,20.57
2023-02-09T23:31:53.448Z,21.03
2023-02-09T23:34:23.355Z,21.63
2023-02-09T23:36:51.407Z,21.63
2023-02-09T23:39:22.282Z,22.57
2023-02-09T23:41:50.279Z,21.03
2023-02-09T23:44:18.088Z,22.20
2023-02-09T23:46:46.027Z,21.70
2023-02-09T23:49:15.187Z,23.40
2023-02-09T23:51:42.941Z,24.80
2023-02-09T23:54:11.558Z,23.93
2023-02-09T23:56:40.524Z,23.30
2023-02-09T23:59:12.869Z,21.17
